createdAt,value
2022-09-14T00:01:32.639Z,19.05
2022-09-14T00:04:07.546Z,19.03
2022-09-14T00:06:35.001Z,19.02
2022-09-14T00:09:02.197Z,18.99
2022-09-14T00:11:31.847Z,18.97
2022-09-14T00:14:01.275Z,18.95
2022-09-14T00:16:35.443Z,18.92
2022-09-14T00:19:06.740Z,18.88
2022-09-14T00:21:37.279Z,18.88
2022-09-14T00:24:07.194Z,18.86
2022-09-14T00:26:34.702Z,18.82
2022-09-14T00:29:04.874Z,18.81
2022-09-14T00:31:38.266Z,18.80
2022-09-14T00:34:08.587Z,18.76
2022-09-14T00:36:41.311Z,18.73
2022-09-14T00:39:08.769Z,18.72
2022-09-14T00:41:41.283Z,18.70
2022-09-14T00:44:11.061Z,18.67
2022-09-14T00:46:44.890Z,18.66
2022-09-14T00:49:20.661Z,18.64
2022-09-14T00:52:13.159Z,18.63
2022-09-14T00:54:44.700Z,18.61
2022-09-14T00:57:12.103Z,18.62
2022-09-14T00:59:42.027Z,18.55
2022-09-14T01:02:12.066Z,18.59
2022-09-14T01:04:39.007Z,18.59
2022-09-14T01:07:36.684Z,18.54
2022-09-14T01:10:36.684Z,18.51
2022-09-14T01:13:28.497Z,18.48
2022-09-14T01:16:49.104Z,18.44
2022-09-14T01:20:05.403Z,18.40
2022-09-14T01:22:50.410Z,18.38
2022-09-14T01:25:33.992Z,18.31
2022-09-14T01:28:03.813Z,18.37
2022-09-14T01:30:33.720Z,18.37
2022-09-14T01:33:15.185Z,18.34
2022-09-14T01:35:53.991Z,18.33
2022-09-14T01:38:35.039Z,18.32
2022-09-14T01:41:07.171Z,18.30
2022-09-14T01:43:41.150Z,18.27
2022-09-14T01:46:14.640Z,18.28
2022-09-14T01:49:11.995Z,18.22
2022-09-14T01:51:48.084Z,18.21
2022-09-14T01:54:34.545Z,18.19
2022-09-14T01:57:14.762Z,18.17
2022-09-14T01:59:47.095Z,18.16
2022-09-14T02:02:39.766Z,18.14
2022-09-14T02:05:28.068Z,18.11
2022-09-14T02:07:56.117Z,18.10
2022-09-14T02:10:24.433Z,18.09
2022-09-14T02:12:53.064Z,18.05
2022-09-14T02:15:20.737Z,18.06
2022-09-14T02:17:48.081Z,18.05
2022-09-14T02:20:34.082Z,18.02
2022-09-14T02:23:01.288Z,18.00
2022-09-14T02:25:28.218Z,17.99
2022-09-14T02:27:55.365Z,17.96
2022-09-14T02:30:22.683Z,17.96
2022-09-14T02:33:21.806Z,17.92
2022-09-14T02:35:54.470Z,17.92
2022-09-14T02:38:40.839Z,17.91
2022-09-14T02:41:39.784Z,17.90
2022-09-14T02:44:40.335Z,17.88
2022-09-14T02:47:33.671Z,17.86
2022-09-14T02:50:32.538Z,17.84
2022-09-14T02:53:10.492Z,17.83
2022-09-14T02:55:47.838Z,17.83
2022-09-14T02:58:15.157Z,17.83
2022-09-14T03:00:46.067Z,17.83
2022-09-14T03:03:16.628Z,17.83
2022-09-14T03:05:43.931Z,17.84
2022-09-14T03:08:11.692Z,17.82
2022-09-14T03:10:42.628Z,17.83
2022-09-14T03:13:09.792Z,17.83
2022-09-14T03:15:37.028Z,17.80
2022-09-14T03:18:03.927Z,17.82
2022-09-14T03:20:33.746Z,17.79
2022-09-14T03:23:02.039Z,17.81
2022-09-14T03:25:29.491Z,17.84
2022-09-14T03:27:59.300Z,17.87
2022-09-14T03:30:27.551Z,17.88
2022-09-14T03:32:54.411Z,17.91
2022-09-14T03:35:21.530Z,17.91
2022-09-14T03:37:48.428Z,17.96
2022-09-14T03:40:21.654Z,17.98
2022-09-14T03:42:51.353Z,17.99
2022-09-14T03:45:20.076Z,18.03
2022-09-14T03:47:47.128Z,18.04
2022-09-14T03:50:15.755Z,18.01
2022-09-14T03:52:42.954Z,18.06
2022-09-14T03:55:10.763Z,18.05
2022-09-14T03:57:37.628Z,18.05
2022-09-14T04:00:07.147Z,18.04
2022-09-14T04:02:38.482Z,18.03
2022-09-14T04:05:05.990Z,18.02
2022-09-14T04:07:33.100Z,18.02
2022-09-14T04:09:59.975Z,18.00
2022-09-14T04:12:26.923Z,17.99
2022-09-14T04:14:53.882Z,17.98
2022-09-14T04:17:20.747Z,17.97
2022-09-14T04:19:47.662Z,17.95
2022-09-14T04:22:14.524Z,17.95
2022-09-14T04:24:41.408Z,17.93
2022-09-14T04:27:08.263Z,17.92
2022-09-14T04:29:35.141Z,17.91
2022-09-14T04:32:03.495Z,17.89
2022-09-14T04:34:30.381Z,17.88
2022-09-14T04:36:57.245Z,17.87
2022-09-14T04:39:24.216Z,17.86
2022-09-14T04:41:51.099Z,17.85
2022-09-14T04:44:18.060Z,17.83
2022-09-14T04:46:46.902Z,17.84
2022-09-14T04:49:18.565Z,17.83
2022-09-14T04:51:45.491Z,17.81
2022-09-14T04:54:15.956Z,17.82
2022-09-14T04:56:43.097Z,17.81
2022-09-14T04:59:10.775Z,17.83
2022-09-14T05:01:42.221Z,17.83
2022-09-14T05:04:10.971Z,17.87
2022-09-14T05:06:40.279Z,17.90
2022-09-14T05:09:13.772Z,17.94
2022-09-14T05:11:41.327Z,17.99
2022-09-14T05:14:10.923Z,18.03
2022-09-14T05:16:38.987Z,18.09
2022-09-14T05:19:10.854Z,18.10
2022-09-14T05:21:38.192Z,18.18
2022-09-14T05:24:14.627Z,18.21
2022-09-14T05:26:43.381Z,18.25
2022-09-14T05:29:16.911Z,18.30
2022-09-14T05:31:44.167Z,18.35
2022-09-14T05:34:12.048Z,18.39
2022-09-14T05:36:39.878Z,18.45
2022-09-14T05:39:08.054Z,18.48
2022-09-14T05:41:35.410Z,18.51
2022-09-14T05:44:02.445Z,18.54
2022-09-14T05:46:29.370Z,18.57
2022-09-14T05:48:56.283Z,18.61
2022-09-14T05:51:25.607Z,18.63
2022-09-14T05:53:58.045Z,18.66
2022-09-14T05:56:29.135Z,18.70
2022-09-14T05:58:56.155Z,18.74
2022-09-14T06:01:26.708Z,18.77
2022-09-14T06:03:55.656Z,18.80
2022-09-14T06:06:23.461Z,18.84
2022-09-14T06:08:52.665Z,18.83
2022-09-14T06:11:28.368Z,18.89
2022-09-14T06:13:56.620Z,18.94
2022-09-14T06:16:25.227Z,18.97
2022-09-14T06:18:52.588Z,18.97
2022-09-14T06:21:21.055Z,19.07
2022-09-14T06:23:49.840Z,19.02
2022-09-14T06:26:17.483Z,19.15
2022-09-14T06:28:44.964Z,19.18
2022-09-14T06:31:14.317Z,19.23
2022-09-14T06:33:45.673Z,19.25
2022-09-14T06:36:16.269Z,19.30
2022-09-14T06:38:43.409Z,19.30
2022-09-14T06:41:13.666Z,19.36
2022-09-14T06:43:42.873Z,19.41
2022-09-14T06:46:18.826Z,19.45
2022-09-14T06:49:05.298Z,19.49
2022-09-14T06:51:44.306Z,19.50
2022-09-14T06:54:13.460Z,19.57
2022-09-14T06:56:41.926Z,19.62
2022-09-14T06:59:11.894Z,19.68
2022-09-14T07:01:39.244Z,19.75
2022-09-14T07:04:06.784Z,19.83
2022-09-14T07:06:44.803Z,19.85
2022-09-14T07:09:13.519Z,19.95
2022-09-14T07:11:41.119Z,20.01
2022-09-14T07:14:08.775Z,19.98
2022-09-14T07:16:37.940Z,20.10
2022-09-14T07:19:09.900Z,20.14
2022-09-14T07:21:37.053Z,20.19
2022-09-14T07:24:04.029Z,20.21
2022-09-14T07:26:35.941Z,20.29
2022-09-14T07:29:06.615Z,20.36
2022-09-14T07:31:44.020Z,20.44
2022-09-14T07:34:12.350Z,20.51
2022-09-14T07:36:40.430Z,20.59
2022-09-14T07:39:10.670Z,20.69
2022-09-14T07:41:37.843Z,20.78
2022-09-14T07:44:07.997Z,20.86
2022-09-14T07:46:41.263Z,20.96
2022-09-14T07:49:09.817Z,21.07
2022-09-14T07:51:37.556Z,21.18
2022-09-14T07:54:07.250Z,21.28
2022-09-14T07:56:35.023Z,21.36
2022-09-14T07:59:24.150Z,21.49
2022-09-14T08:01:50.277Z,21.55
2022-09-14T08:04:17.582Z,21.64
2022-09-14T08:06:44.451Z,21.71
2022-09-14T08:09:11.332Z,21.76
2022-09-14T08:11:38.724Z,21.85
2022-09-14T08:14:11.903Z,21.92
2022-09-14T08:16:39.282Z,21.98
2022-09-14T08:19:12.345Z,22.04
2022-09-14T08:21:44.170Z,22.11
2022-09-14T08:24:15.901Z,22.13
2022-09-14T08:26:42.777Z,22.16
2022-09-14T08:29:09.708Z,22.20
2022-09-14T08:31:38.939Z,22.24
2022-09-14T08:34:07.003Z,22.30
2022-09-14T08:36:37.424Z,22.37
2022-09-14T08:39:09.190Z,22.48
2022-09-14T08:41:52.354Z,22.57
2022-09-14T08:44:43.530Z,22.63
2022-09-14T08:47:13.731Z,22.71
2022-09-14T08:50:13.666Z,22.77
2022-09-14T08:52:47.223Z,22.85
2022-09-14T08:55:41.670Z,22.87
2022-09-14T08:58:58.265Z,22.84
2022-09-14T09:02:00.207Z,22.78
2022-09-14T09:04:57.465Z,22.73
2022-09-14T09:07:53.588Z,22.65
2022-09-14T09:10:20.819Z,22.75
2022-09-14T09:12:53.731Z,22.77
2022-09-14T09:15:32.051Z,22.76
2022-09-14T09:18:17.128Z,22.77
2022-09-14T09:20:52.871Z,22.77
2022-09-14T09:23:22.785Z,22.80
2022-09-14T09:25:58.493Z,22.82
2022-09-14T09:28:28.544Z,22.85
2022-09-14T09:30:59.103Z,22.92
2022-09-14T09:33:38.450Z,22.95
2022-09-14T09:36:18.468Z,23.09
2022-09-14T09:38:45.385Z,23.17
2022-09-14T09:41:28.043Z,23.23
2022-09-14T09:44:09.399Z,23.29
2022-09-14T09:46:59.791Z,23.34
2022-09-14T09:49:38.940Z,23.41
2022-09-14T09:52:15.950Z,23.45
2022-09-14T09:54:50.599Z,23.50
2022-09-14T09:57:36.494Z,23.54
2022-09-14T10:00:26.008Z,23.59
2022-09-14T10:02:54.108Z,23.64
2022-09-14T10:05:29.036Z,23.70
2022-09-14T10:08:02.157Z,23.77
2022-09-14T10:10:34.934Z,23.81
2022-09-14T10:13:05.133Z,23.84
2022-09-14T10:15:34.343Z,23.84
2022-09-14T10:18:13.212Z,23.94
2022-09-14T10:20:53.834Z,24.03
2022-09-14T10:23:20.655Z,24.12
2022-09-14T10:25:49.176Z,24.19
2022-09-14T10:28:34.491Z,24.26
2022-09-14T10:31:18.294Z,24.39
2022-09-14T10:33:52.498Z,24.49
2022-09-14T10:36:41.294Z,24.54
2022-09-14T10:39:31.163Z,24.60
2022-09-14T10:42:34.923Z,24.59
2022-09-14T10:45:31.396Z,24.56
2022-09-14T10:48:40.279Z,24.54
2022-09-14T10:51:33.116Z,24.48
2022-09-14T10:54:28.304Z,24.46
2022-09-14T10:57:24.647Z,24.45
2022-09-14T11:00:10.355Z,24.45
2022-09-14T11:03:20.751Z,24.47
2022-09-14T11:06:17.375Z,24.50
2022-09-14T11:09:01.437Z,24.48
2022-09-14T11:12:27.892Z,24.43
2022-09-14T11:15:24.376Z,24.37
2022-09-14T11:18:06.040Z,24.34
2022-09-14T11:20:48.292Z,24.28
2022-09-14T11:23:30.884Z,24.26
2022-09-14T11:26:04.064Z,24.27
2022-09-14T11:28:56.486Z,24.27
2022-09-14T11:31:55.299Z,24.31
2022-09-14T11:34:41.732Z,24.29
2022-09-14T11:37:19.228Z,24.27
2022-09-14T11:40:15.712Z,24.24
2022-09-14T11:42:55.513Z,24.27
2022-09-14T11:45:35.741Z,24.27
2022-09-14T11:48:42.476Z,24.32
2022-09-14T11:51:19.233Z,24.39
2022-09-14T11:53:46.719Z,24.42
2022-09-14T11:56:26.275Z,24.46
2022-09-14T11:58:59.892Z,24.52
2022-09-14T12:01:38.370Z,24.47
2022-09-14T12:04:16.780Z,24.55
2022-09-14T12:06:54.964Z,24.57
2022-09-14T12:09:22.609Z,24.58
2022-09-14T12:11:54.088Z,24.60
2022-09-14T12:14:27.503Z,24.60
2022-09-14T12:17:42.623Z,24.61
2022-09-14T12:20:37.260Z,24.60
2022-09-14T12:23:26.741Z,24.57
2022-09-14T12:26:10.007Z,24.55
2022-09-14T12:28:39.522Z,24.60
2022-09-14T12:31:11.962Z,24.69
2022-09-14T12:33:38.716Z,24.76
2022-09-14T12:36:11.192Z,24.83
2022-09-14T12:38:42.546Z,24.89
2022-09-14T12:41:15.265Z,24.92
2022-09-14T12:43:42.016Z,24.98
2022-09-14T12:46:21.156Z,24.99
2022-09-14T12:48:52.995Z,25.00
2022-09-14T12:51:31.624Z,24.98
2022-09-14T12:53:58.488Z,24.99
2022-09-14T12:56:40.037Z,24.95
2022-09-14T12:59:22.589Z,24.91
2022-09-14T13:02:16.893Z,24.88
2022-09-14T13:04:45.757Z,24.91
2022-09-14T13:07:19.955Z,24.90
2022-09-14T13:09:50.578Z,24.95
2022-09-14T13:12:46.440Z,25.00
2022-09-14T13:15:33.630Z,25.05
2022-09-14T13:18:23.369Z,25.05
2022-09-14T13:20:55.901Z,25.01
2022-09-14T13:23:30.114Z,25.01
2022-09-14T13:25:57.383Z,25.01
2022-09-14T13:28:30.207Z,25.00
2022-09-14T13:31:00.544Z,24.95
2022-09-14T13:33:29.928Z,24.95
2022-09-14T13:36:02.981Z,24.94
2022-09-14T13:38:36.746Z,24.93
2022-09-14T13:41:17.635Z,24.90
2022-09-14T13:43:47.389Z,24.87
2022-09-14T13:46:19.638Z,24.84
2022-09-14T13:48:47.615Z,24.81
2022-09-14T13:51:15.481Z,24.78
2022-09-14T13:53:50.552Z,24.72
2022-09-14T13:56:26.811Z,24.66
2022-09-14T13:59:08.864Z,24.58
2022-09-14T14:01:46.586Z,24.50
2022-09-14T14:04:37.797Z,24.43
2022-09-14T14:07:12.608Z,24.39
2022-09-14T14:09:52.206Z,24.33
2022-09-14T14:12:29.945Z,24.28
2022-09-14T14:15:24.182Z,24.23
2022-09-14T14:17:51.095Z,24.21
2022-09-14T14:20:29.503Z,24.19
2022-09-14T14:23:21.012Z,24.14
2022-09-14T14:25:54.555Z,24.11
2022-09-14T14:28:28.301Z,24.07
2022-09-14T14:30:57.136Z,24.04
2022-09-14T14:33:24.953Z,24.01
2022-09-14T14:35:54.547Z,23.99
2022-09-14T14:38:23.679Z,23.97
2022-09-14T14:40:54.034Z,23.94
2022-09-14T14:43:27.661Z,23.96
2022-09-14T14:45:58.465Z,23.93
2022-09-14T14:48:26.590Z,23.91
2022-09-14T14:50:55.546Z,23.89
2022-09-14T14:53:24.774Z,23.86
2022-09-14T14:55:52.204Z,23.85
2022-09-14T14:58:21.160Z,23.83
2022-09-14T15:00:48.338Z,23.83
2022-09-14T15:03:15.846Z,23.83
2022-09-14T15:05:44.531Z,23.85
2022-09-14T15:08:13.663Z,23.87
2022-09-14T15:10:41.156Z,23.88
2022-09-14T15:13:10.390Z,23.89
2022-09-14T15:15:37.295Z,23.89
2022-09-14T15:18:04.179Z,23.88
2022-09-14T15:20:31.069Z,23.88
2022-09-14T15:22:57.975Z,23.86
2022-09-14T15:25:24.836Z,23.85
2022-09-14T15:27:51.707Z,23.83
2022-09-14T15:30:18.583Z,23.80
2022-09-14T15:32:45.455Z,23.76
2022-09-14T15:35:14.221Z,23.70
2022-09-14T15:37:41.800Z,23.68
2022-09-14T15:40:09.862Z,23.63
2022-09-14T15:42:36.831Z,23.59
2022-09-14T15:45:04.819Z,23.56
2022-09-14T15:47:35.614Z,23.53
2022-09-14T15:50:04.170Z,23.50
2022-09-14T15:52:31.040Z,23.49
2022-09-14T15:54:57.942Z,23.47
2022-09-14T15:57:24.822Z,23.43
2022-09-14T15:59:54.336Z,23.42
2022-09-14T16:02:21.335Z,23.42
2022-09-14T16:04:48.299Z,23.39
2022-09-14T16:07:15.315Z,23.35
2022-09-14T16:09:42.481Z,23.36
2022-09-14T16:12:11.903Z,23.29
2022-09-14T16:14:38.956Z,23.29
2022-09-14T16:17:06.503Z,23.25
2022-09-14T16:19:33.418Z,23.24
2022-09-14T16:22:00.555Z,23.21
2022-09-14T16:24:28.016Z,23.17
2022-09-14T16:26:55.348Z,23.15
2022-09-14T16:29:24.307Z,23.11
2022-09-14T16:31:51.991Z,23.05
2022-09-14T16:34:26.708Z,23.00
2022-09-14T16:36:53.838Z,22.95
2022-09-14T16:39:24.943Z,22.91
2022-09-14T16:41:54.098Z,22.85
2022-09-14T16:44:24.468Z,22.81
2022-09-14T16:46:53.576Z,22.80
2022-09-14T16:49:26.341Z,22.78
2022-09-14T16:51:54.744Z,22.71
2022-09-14T16:54:24.080Z,22.69
2022-09-14T16:56:51.207Z,22.67
2022-09-14T16:59:20.502Z,22.62
2022-09-14T17:01:53.423Z,22.60
2022-09-14T17:04:22.050Z,22.58
2022-09-14T17:06:50.519Z,22.57
2022-09-14T17:09:29.541Z,22.55
2022-09-14T17:11:57.808Z,22.52
2022-09-14T17:14:30.878Z,22.52
2022-09-14T17:16:58.955Z,22.50
2022-09-14T17:19:27.003Z,22.48
2022-09-14T17:21:54.207Z,22.43
2022-09-14T17:24:21.932Z,22.44
2022-09-14T17:26:49.351Z,22.43
2022-09-14T17:29:16.533Z,22.41
2022-09-14T17:31:44.779Z,22.39
2022-09-14T17:34:15.898Z,22.35
2022-09-14T17:36:43.454Z,22.30
2022-09-14T17:39:12.459Z,22.31
2022-09-14T17:41:41.084Z,22.32
2022-09-14T17:44:11.162Z,22.29
2022-09-14T17:46:45.438Z,22.26
2022-09-14T17:49:18.034Z,22.22
2022-09-14T17:51:45.326Z,22.20
2022-09-14T17:54:12.785Z,22.15
2022-09-14T17:56:39.724Z,22.09
2022-09-14T17:59:11.704Z,22.07
2022-09-14T18:01:38.812Z,22.05
2022-09-14T18:04:10.024Z,22.00
2022-09-14T18:06:40.408Z,21.98
2022-09-14T18:09:16.539Z,21.97
2022-09-14T18:11:44.170Z,21.97
2022-09-14T18:14:14.283Z,21.96
2022-09-14T18:16:42.184Z,21.92
2022-09-14T18:19:09.758Z,21.94
2022-09-14T18:21:36.681Z,21.90
2022-09-14T18:24:03.797Z,21.90
2022-09-14T18:26:30.683Z,21.89
2022-09-14T18:28:58.647Z,21.89
2022-09-14T18:31:26.786Z,21.88
2022-09-14T18:34:01.612Z,21.87
2022-09-14T18:36:30.022Z,21.86
2022-09-14T18:38:58.676Z,21.86
2022-09-14T18:41:29.423Z,21.84
2022-09-14T18:43:56.310Z,21.82
2022-09-14T18:46:27.620Z,21.83
2022-09-14T18:49:00.769Z,21.80
2022-09-14T18:51:30.465Z,21.79
2022-09-14T18:54:04.276Z,21.77
2022-09-14T18:56:35.264Z,21.74
2022-09-14T18:59:11.688Z,21.73
2022-09-14T19:01:39.076Z,21.72
2022-09-14T19:04:07.876Z,21.72
2022-09-14T19:06:36.587Z,21.67
2022-09-14T19:09:05.592Z,21.69
2022-09-14T19:11:35.155Z,21.71
2022-09-14T19:14:10.253Z,21.69
2022-09-14T19:16:39.846Z,21.70
2022-09-14T19:19:08.869Z,21.70
2022-09-14T19:21:35.840Z,21.71
2022-09-14T19:24:06.901Z,21.71
2022-09-14T19:26:45.264Z,21.70
2022-09-14T19:29:20.178Z,21.70
2022-09-14T19:31:51.425Z,21.72
2022-09-14T19:34:20.570Z,21.69
2022-09-14T19:36:47.565Z,21.71
2022-09-14T19:39:15.307Z,21.70
2022-09-14T19:41:42.775Z,21.69
2022-09-14T19:44:10.834Z,21.70
2022-09-14T19:46:39.461Z,21.67
2022-09-14T19:49:16.022Z,21.66
2022-09-14T19:51:43.235Z,21.60
2022-09-14T19:54:10.634Z,21.66
2022-09-14T19:56:37.754Z,21.55
2022-09-14T19:59:07.178Z,21.62
2022-09-14T20:01:36.913Z,21.62
2022-09-14T20:04:05.690Z,21.60
2022-09-14T20:06:37.187Z,21.60
2022-09-14T20:09:08.921Z,21.56
2022-09-14T20:11:37.756Z,21.54
2022-09-14T20:14:07.751Z,21.53
2022-09-14T20:16:49.486Z,21.51
2022-09-14T20:19:19.950Z,21.48
2022-09-14T20:21:49.027Z,21.43
2022-09-14T20:24:19.726Z,21.43
2022-09-14T20:26:48.901Z,21.44
2022-09-14T20:29:17.674Z,21.41
2022-09-14T20:31:45.744Z,21.41
2022-09-14T20:34:14.050Z,21.38
2022-09-14T20:36:41.313Z,21.36
2022-09-14T20:39:08.639Z,21.35
2022-09-14T20:41:36.435Z,21.29
2022-09-14T20:44:04.474Z,21.29
2022-09-14T20:46:39.218Z,21.28
2022-09-14T20:49:11.455Z,21.25
2022-09-14T20:51:39.183Z,21.22
2022-09-14T20:54:07.896Z,21.22
2022-09-14T20:56:35.970Z,21.22
2022-09-14T20:59:06.123Z,21.20
2022-09-14T21:01:36.805Z,21.17
2022-09-14T21:04:09.107Z,21.15
2022-09-14T21:06:42.035Z,21.15
2022-09-14T21:09:10.641Z,21.15
2022-09-14T21:11:37.945Z,21.13
2022-09-14T21:14:05.316Z,21.12
2022-09-14T21:16:42.632Z,21.10
2022-09-14T21:19:18.123Z,21.10
2022-09-14T21:21:45.330Z,21.07
2022-09-14T21:24:13.596Z,21.07
2022-09-14T21:26:43.023Z,21.07
2022-09-14T21:29:18.171Z,21.05
2022-09-14T21:31:45.238Z,21.03
2022-09-14T21:34:12.755Z,21.02
2022-09-14T21:36:43.906Z,21.01
2022-09-14T21:39:24.005Z,20.99
2022-09-14T21:41:57.995Z,20.98
2022-09-14T21:44:34.568Z,20.96
2022-09-14T21:47:02.342Z,20.96
2022-09-14T21:49:29.395Z,20.95
2022-09-14T21:51:56.273Z,20.94
2022-09-14T21:54:23.619Z,20.93
2022-09-14T21:56:50.515Z,20.93
2022-09-14T21:59:20.238Z,20.92
2022-09-14T22:01:48.274Z,20.92
2022-09-14T22:04:21.022Z,20.91
2022-09-14T22:06:48.334Z,20.92
2022-09-14T22:09:17.156Z,20.92
2022-09-14T22:11:44.640Z,20.95
2022-09-14T22:14:18.435Z,20.95
2022-09-14T22:16:46.286Z,20.96
2022-09-14T22:19:22.931Z,20.96
2022-09-14T22:21:51.003Z,20.97
2022-09-14T22:24:27.870Z,20.95
2022-09-14T22:26:55.036Z,20.93
2022-09-14T22:29:22.180Z,20.93
2022-09-14T22:31:49.057Z,20.93
2022-09-14T22:34:16.887Z,20.92
2022-09-14T22:36:43.995Z,20.90
2022-09-14T22:39:11.087Z,20.89
2022-09-14T22:41:38.496Z,20.87
2022-09-14T22:44:06.768Z,20.85
2022-09-14T22:46:34.461Z,20.81
2022-09-14T22:49:01.384Z,20.83
2022-09-14T22:51:29.283Z,20.82
2022-09-14T22:53:56.689Z,20.80
2022-09-14T22:56:33.767Z,20.79
2022-09-14T22:59:04.048Z,20.77
2022-09-14T23:01:34.609Z,20.75
2022-09-14T23:04:11.432Z,20.73
2022-09-14T23:06:47.504Z,20.68
2022-09-14T23:09:19.496Z,20.68
2022-09-14T23:11:46.707Z,20.66
2022-09-14T23:14:15.187Z,20.65
2022-09-14T23:16:45.034Z,20.64
2022-09-14T23:19:16.869Z,20.58
2022-09-14T23:21:44.745Z,20.60
2022-09-14T23:24:12.255Z,20.59
2022-09-14T23:26:39.595Z,20.58
2022-09-14T23:29:11.455Z,20.56
2022-09-14T23:31:38.354Z,20.56
2022-09-14T23:34:05.789Z,20.53
2022-09-14T23:36:33.259Z,20.48
2022-09-14T23:39:00.393Z,20.50
2022-09-14T23:41:28.383Z,20.48
2022-09-14T23:43:55.352Z,20.48
2022-09-14T23:46:22.601Z,20.44
2022-09-14T23:48:49.990Z,20.43
2022-09-14T23:51:17.208Z,20.42
2022-09-14T23:53:44.228Z,20.41
2022-09-14T23:56:12.329Z,20.40
2022-09-14T23:58:41.862Z,20.39
